KQA442 DGAA-HAAB
Flight info
| Callsign | KQA442 |
|---|---|
| Flight time | N/A |
| Altitude | 35000 |
| Route | EREKA1C EREKA UL433 LAG UQ200 IPISU DCT ASKON L558 DASTU UT139 BRO BRO2B |
| Aircraft | A321/M-SDE3FGHIRWY/LB1 |
Departure
| Time | 2026-04-26 14:52 |
|---|---|
| Airport | Kotoka International Airport (DGAA) |
Arrival
| Time | N/A |
|---|---|
| Airport | Addis Ababa Bole International Airport (HAAB) |
| Time | Latitude | Longitude | Altitude | Speed | Heading |
|---|---|---|---|---|---|
| 2026-04-26 14:34 | 5.60102 | -0.17222 | 215 ft | 0 kts | 292° |
| 2026-04-26 14:35 | 5.60100 | -0.17217 | 214 ft | 2 kts | 292° |
| 2026-04-26 14:35 | 5.60095 | -0.17203 | 214 ft | 2 kts | 292° |
| 2026-04-26 14:35 | 5.60089 | -0.17190 | 214 ft | 2 kts | 292° |
| 2026-04-26 14:36 | 5.60083 | -0.17176 | 213 ft | 2 kts | 292° |
| 2026-04-26 14:36 | 5.60077 | -0.17161 | 213 ft | 2 kts | 296° |
| 2026-04-26 14:36 | 5.60068 | -0.17149 | 212 ft | 2 kts | 317° |
| 2026-04-26 14:36 | 5.60056 | -0.17140 | 212 ft | 2 kts | 333° |
| 2026-04-26 14:37 | 5.60042 | -0.17135 | 212 ft | 2 kts | 349° |
| 2026-04-26 14:37 | 5.60027 | -0.17133 | 212 ft | 2 kts | 5° |
| 2026-04-26 14:37 | 5.60013 | -0.17136 | 212 ft | 0 kts | 20° |
| 2026-04-26 14:37 | 5.60007 | -0.17139 | 213 ft | 0 kts | 22° |
| 2026-04-26 14:40 | 5.60011 | -0.17137 | 212 ft | 1 kts | 23° |
| 2026-04-26 14:40 | 5.60032 | -0.17128 | 212 ft | 4 kts | 25° |
| 2026-04-26 14:40 | 5.60063 | -0.17114 | 212 ft | 5 kts | 18° |
| 2026-04-26 14:40 | 5.60105 | -0.17101 | 212 ft | 6 kts | 17° |
| 2026-04-26 14:41 | 5.60151 | -0.17088 | 213 ft | 6 kts | 15° |
| 2026-04-26 14:41 | 5.60193 | -0.17071 | 214 ft | 5 kts | 29° |
| 2026-04-26 14:41 | 5.60226 | -0.17053 | 215 ft | 4 kts | 27° |
| 2026-04-26 14:41 | 5.60257 | -0.17039 | 216 ft | 5 kts | 23° |
| 2026-04-26 14:42 | 5.60290 | -0.17025 | 218 ft | 4 kts | 22° |
| 2026-04-26 14:42 | 5.60325 | -0.17010 | 220 ft | 5 kts | 22° |
| 2026-04-26 14:42 | 5.60364 | -0.16994 | 222 ft | 6 kts | 23° |
| 2026-04-26 14:42 | 5.60406 | -0.16977 | 224 ft | 8 kts | 21° |
| 2026-04-26 14:43 | 5.60470 | -0.16951 | 227 ft | 11 kts | 23° |
| 2026-04-26 14:43 | 5.60555 | -0.16915 | 231 ft | 14 kts | 21° |
| 2026-04-26 14:43 | 5.60666 | -0.16870 | 234 ft | 19 kts | 22° |
| 2026-04-26 14:43 | 5.60807 | -0.16812 | 235 ft | 24 kts | 22° |
| 2026-04-26 14:44 | 5.60982 | -0.16739 | 235 ft | 27 kts | 22° |
| 2026-04-26 14:44 | 5.61162 | -0.16666 | 232 ft | 28 kts | 22° |
| 2026-04-26 14:44 | 5.61347 | -0.16590 | 227 ft | 28 kts | 22° |
| 2026-04-26 14:44 | 5.61529 | -0.16513 | 220 ft | 26 kts | 36° |
| 2026-04-26 14:45 | 5.61514 | -0.16351 | 208 ft | 28 kts | 154° |
| 2026-04-26 14:45 | 5.61395 | -0.16361 | 212 ft | 25 kts | 200° |
| 2026-04-26 14:45 | 5.60813 | -0.16574 | 220 ft | 120 kts | 198° |
| 2026-04-26 14:45 | 5.59952 | -0.16969 | 204 ft | 93 kts | 206° |
| 2026-04-26 14:46 | 5.59716 | -0.17067 | 208 ft | 21 kts | 200° |
| 2026-04-26 14:46 | 5.59579 | -0.17116 | 206 ft | 20 kts | 200° |
| 2026-04-26 14:46 | 5.59429 | -0.17173 | 203 ft | 26 kts | 200° |
| 2026-04-26 14:46 | 5.59243 | -0.17247 | 197 ft | 29 kts | 209° |
| 2026-04-26 14:47 | 5.59212 | -0.17417 | 196 ft | 26 kts | 322° |
| 2026-04-26 14:47 | 5.59366 | -0.17405 | 208 ft | 19 kts | 22° |
| 2026-04-26 14:47 | 5.59483 | -0.17357 | 214 ft | 18 kts | 22° |
| 2026-04-26 14:47 | 5.59623 | -0.17299 | 218 ft | 25 kts | 22° |
| 2026-04-26 14:48 | 5.59811 | -0.17222 | 218 ft | 32 kts | 22° |
| 2026-04-26 14:48 | 5.60051 | -0.17123 | 212 ft | 39 kts | 22° |
| 2026-04-26 14:48 | 5.60296 | -0.17022 | 219 ft | 34 kts | 22° |
| 2026-04-26 14:48 | 5.60499 | -0.16939 | 228 ft | 28 kts | 22° |
| 2026-04-26 14:49 | 5.60674 | -0.16867 | 234 ft | 25 kts | 22° |
| 2026-04-26 14:49 | 5.60828 | -0.16802 | 235 ft | 23 kts | 24° |
| 2026-04-26 14:49 | 5.60978 | -0.16742 | 235 ft | 22 kts | 22° |
| 2026-04-26 14:49 | 5.61127 | -0.16681 | 232 ft | 23 kts | 22° |
| 2026-04-26 14:50 | 5.61284 | -0.16616 | 229 ft | 24 kts | 22° |
| 2026-04-26 14:50 | 5.61445 | -0.16550 | 223 ft | 25 kts | 22° |
| 2026-04-26 14:50 | 5.61569 | -0.16431 | 211 ft | 28 kts | 96° |
| 2026-04-26 14:50 | 5.61642 | -0.16262 | 190 ft | 32 kts | 30° |
| 2026-04-26 14:51 | 5.61824 | -0.16207 | 164 ft | 24 kts | 351° |
| 2026-04-26 14:51 | 5.61842 | -0.16171 | 161 ft | 18 kts | 211° |
| 2026-04-26 14:51 | 5.61732 | -0.16223 | 176 ft | 34 kts | 202° |
| 2026-04-26 14:51 | 5.61207 | -0.16440 | 221 ft | 127 kts | 200° |
| 2026-04-26 14:52 | 5.60130 | -0.16880 | 225 ft | 200 kts | 201° |
| 2026-04-26 14:52 | 5.58857 | -0.17441 | 1271 ft | 203 kts | 200° |
| 2026-04-26 14:52 | 5.57510 | -0.17986 | 2141 ft | 216 kts | 198° |
| 2026-04-26 14:52 | 5.56011 | -0.18194 | 2871 ft | 231 kts | 168° |
| 2026-04-26 14:53 | 5.54531 | -0.17475 | 3619 ft | 246 kts | 135° |
| 2026-04-26 14:53 | 5.53665 | -0.15963 | 4314 ft | 259 kts | 102° |
| 2026-04-26 14:53 | 5.53594 | -0.14169 | 5118 ft | 264 kts | 91° |
| 2026-04-26 14:53 | 5.53540 | -0.12307 | 5975 ft | 268 kts | 94° |
| 2026-04-26 14:54 | 5.53432 | -0.10452 | 6863 ft | 270 kts | 94° |
| 2026-04-26 14:54 | 5.53578 | -0.08578 | 7631 ft | 272 kts | 71° |
| 2026-04-26 14:54 | 5.54354 | -0.06857 | 8457 ft | 273 kts | 62° |
| 2026-04-26 14:54 | 5.55250 | -0.05203 | 9249 ft | 274 kts | 61° |
| 2026-04-26 14:55 | 5.56161 | -0.03510 | 10004 ft | 276 kts | 62° |
| 2026-04-26 14:55 | 5.57064 | -0.01789 | 10524 ft | 285 kts | 62° |
| 2026-04-26 14:55 | 5.57986 | 0.00010 | 10818 ft | 302 kts | 63° |
| 2026-04-26 14:55 | 5.58977 | 0.01972 | 11256 ft | 315 kts | 63° |
| 2026-04-26 14:56 | 5.59962 | 0.03945 | 11899 ft | 320 kts | 63° |
| 2026-04-26 14:56 | 5.60957 | 0.05948 | 12497 ft | 324 kts | 63° |
| 2026-04-26 14:56 | 5.61961 | 0.07976 | 13088 ft | 328 kts | 63° |
| 2026-04-26 14:56 | 5.62979 | 0.10032 | 13662 ft | 334 kts | 63° |
| 2026-04-26 14:57 | 5.64027 | 0.12157 | 14219 ft | 339 kts | 63° |
| 2026-04-26 14:57 | 5.65073 | 0.14278 | 14799 ft | 343 kts | 63° |
| 2026-04-26 14:57 | 5.66127 | 0.16416 | 15374 ft | 346 kts | 63° |
| 2026-04-26 14:57 | 5.67196 | 0.18585 | 15941 ft | 349 kts | 62° |
| 2026-04-26 14:58 | 5.68290 | 0.20806 | 16475 ft | 353 kts | 62° |
| 2026-04-26 14:58 | 5.69381 | 0.23018 | 16995 ft | 357 kts | 62° |
| 2026-04-26 14:58 | 5.70481 | 0.25252 | 17513 ft | 360 kts | 62° |
| 2026-04-26 14:58 | 5.71589 | 0.27500 | 18006 ft | 364 kts | 62° |
| 2026-04-26 14:59 | 5.72727 | 0.29807 | 18479 ft | 368 kts | 62° |
| 2026-04-26 14:59 | 5.73880 | 0.32097 | 18935 ft | 372 kts | 60° |
| 2026-04-26 14:59 | 5.75109 | 0.34398 | 19371 ft | 376 kts | 60° |
| 2026-04-26 14:59 | 5.75924 | 0.35915 | 19668 ft | 379 kts | 60° |
| 2026-04-26 15:00 | 5.77594 | 0.39022 | 20363 ft | 380 kts | 60° |
| 2026-04-26 15:00 | 5.78860 | 0.41378 | 20837 ft | 383 kts | 60° |
| 2026-04-26 15:00 | 5.80124 | 0.43735 | 21245 ft | 387 kts | 60° |
| 2026-04-26 15:00 | 5.81404 | 0.46118 | 21670 ft | 391 kts | 60° |
| 2026-04-26 15:01 | 5.82704 | 0.48544 | 22087 ft | 394 kts | 60° |
| 2026-04-26 15:01 | 5.83998 | 0.50961 | 22490 ft | 397 kts | 60° |
| 2026-04-26 15:01 | 5.85318 | 0.53420 | 22928 ft | 400 kts | 60° |
| 2026-04-26 15:01 | 5.86639 | 0.55884 | 23393 ft | 401 kts | 61° |
| 2026-04-26 15:02 | 5.87947 | 0.58326 | 23825 ft | 403 kts | 61° |
| 2026-04-26 15:02 | 5.89274 | 0.60803 | 24262 ft | 405 kts | 61° |
| 2026-04-26 15:02 | 5.90622 | 0.63320 | 24680 ft | 407 kts | 61° |
| 2026-04-26 15:02 | 5.91956 | 0.65812 | 25076 ft | 409 kts | 62° |
| 2026-04-26 15:03 | 5.93307 | 0.68339 | 25459 ft | 411 kts | 62° |
| 2026-04-26 15:03 | 5.94669 | 0.70885 | 25840 ft | 414 kts | 62° |
| 2026-04-26 15:03 | 5.96022 | 0.73415 | 26219 ft | 416 kts | 62° |
| 2026-04-26 15:03 | 5.97393 | 0.75984 | 26601 ft | 417 kts | 63° |
| 2026-04-26 15:04 | 5.98673 | 0.78613 | 26981 ft | 419 kts | 66° |
| 2026-04-26 15:04 | 5.99788 | 0.81293 | 27345 ft | 420 kts | 70° |
| 2026-04-26 15:04 | 6.00828 | 0.84049 | 27715 ft | 422 kts | 70° |
| 2026-04-26 15:04 | 6.01847 | 0.86799 | 28081 ft | 423 kts | 71° |
| 2026-04-26 15:05 | 6.02874 | 0.89565 | 28433 ft | 425 kts | 70° |
| 2026-04-26 15:05 | 6.03565 | 0.91429 | 28671 ft | 426 kts | 70° |
| 2026-04-26 15:05 | 6.04954 | 0.95149 | 29166 ft | 427 kts | 71° |
| 2026-04-26 15:05 | 6.05992 | 0.97926 | 29547 ft | 428 kts | 71° |
| 2026-04-26 15:06 | 6.07090 | 1.00726 | 29911 ft | 430 kts | 69° |
| 2026-04-26 15:06 | 6.08274 | 1.03480 | 30285 ft | 431 kts | 68° |
| 2026-04-26 15:06 | 6.09472 | 1.06239 | 30647 ft | 432 kts | 68° |
| 2026-04-26 15:06 | 6.10668 | 1.08983 | 31000 ft | 432 kts | 68° |
| 2026-04-26 15:07 | 6.13071 | 1.14519 | 31932 ft | 428 kts | 69° |
| 2026-04-26 15:07 | 6.14243 | 1.17222 | 32450 ft | 425 kts | 69° |
| 2026-04-26 15:07 | 6.15423 | 1.19947 | 32978 ft | 422 kts | 69° |
| 2026-04-26 15:08 | 6.16545 | 1.22639 | 33510 ft | 419 kts | 71° |
| 2026-04-26 15:08 | 6.17531 | 1.25397 | 33955 ft | 418 kts | 74° |
| 2026-04-26 15:08 | 6.18363 | 1.28201 | 34298 ft | 418 kts | 77° |
| 2026-04-26 15:08 | 6.19027 | 1.31016 | 34628 ft | 419 kts | 80° |
| 2026-04-26 15:09 | 6.19547 | 1.33906 | 34886 ft | 421 kts | 82° |
| 2026-04-26 15:09 | 6.20015 | 1.36818 | 34890 ft | 422 kts | 83° |
| 2026-04-26 15:09 | 6.20938 | 1.42648 | 34893 ft | 422 kts | 83° |
| 2026-04-26 15:10 | 6.21708 | 1.47515 | 34889 ft | 422 kts | 83° |
| 2026-04-26 15:10 | 6.22787 | 1.54313 | 34886 ft | 423 kts | 83° |
| 2026-04-26 15:11 | 6.23707 | 1.60110 | 34877 ft | 422 kts | 83° |
| 2026-04-26 15:11 | 6.24639 | 1.65984 | 34877 ft | 423 kts | 83° |
| 2026-04-26 15:12 | 6.25563 | 1.71816 | 34874 ft | 425 kts | 83° |
| 2026-04-26 15:12 | 6.26494 | 1.77691 | 34872 ft | 425 kts | 83° |
| 2026-04-26 15:13 | 6.27423 | 1.83546 | 34872 ft | 425 kts | 83° |
| 2026-04-26 15:13 | 6.28352 | 1.89411 | 34879 ft | 426 kts | 83° |
| 2026-04-26 15:14 | 6.29281 | 1.95278 | 34885 ft | 426 kts | 83° |
| 2026-04-26 15:14 | 6.30214 | 2.01182 | 34890 ft | 427 kts | 83° |
| 2026-04-26 15:15 | 6.31143 | 2.07070 | 34891 ft | 427 kts | 83° |
| 2026-04-26 15:15 | 6.32068 | 2.12934 | 34891 ft | 427 kts | 83° |
| 2026-04-26 15:16 | 6.33000 | 2.18852 | 34892 ft | 428 kts | 83° |
| 2026-04-26 15:16 | 6.33926 | 2.24733 | 34896 ft | 427 kts | 83° |
| 2026-04-26 15:17 | 6.34701 | 2.29658 | 34897 ft | 427 kts | 83° |
| 2026-04-26 15:17 | 6.35844 | 2.36542 | 34900 ft | 428 kts | 80° |
| 2026-04-26 15:18 | 6.37359 | 2.42322 | 34898 ft | 430 kts | 74° |
| 2026-04-26 15:18 | 6.39377 | 2.48011 | 34898 ft | 431 kts | 72° |
| 2026-04-26 15:19 | 6.41441 | 2.53674 | 34894 ft | 431 kts | 72° |
| 2026-04-26 15:19 | 6.43499 | 2.59333 | 34894 ft | 430 kts | 72° |
| 2026-04-26 15:20 | 6.45552 | 2.64989 | 34892 ft | 431 kts | 72° |
| 2026-04-26 15:20 | 6.47608 | 2.70659 | 34890 ft | 431 kts | 72° |
| 2026-04-26 15:21 | 6.49662 | 2.76301 | 34886 ft | 431 kts | 72° |
| 2026-04-26 15:21 | 6.51783 | 2.81950 | 34889 ft | 431 kts | 71° |
| 2026-04-26 15:22 | 6.53899 | 2.87583 | 34890 ft | 432 kts | 71° |
| 2026-04-26 15:22 | 6.56021 | 2.93246 | 34884 ft | 432 kts | 71° |
| 2026-04-26 15:23 | 6.58133 | 2.98893 | 34883 ft | 431 kts | 71° |
| 2026-04-26 15:23 | 6.60236 | 3.04516 | 34886 ft | 431 kts | 71° |
| 2026-04-26 15:24 | 6.62336 | 3.10140 | 34894 ft | 431 kts | 71° |
| 2026-04-26 15:24 | 6.64443 | 3.15780 | 34895 ft | 431 kts | 71° |
| 2026-04-26 15:25 | 6.66202 | 3.20495 | 34896 ft | 430 kts | 71° |
| 2026-04-26 15:25 | 6.68629 | 3.27085 | 34894 ft | 430 kts | 73° |
| 2026-04-26 15:26 | 6.70234 | 3.32869 | 34897 ft | 428 kts | 79° |
| 2026-04-26 15:26 | 6.71186 | 3.38761 | 34898 ft | 426 kts | 85° |
| 2026-04-26 15:27 | 6.71654 | 3.44708 | 34897 ft | 426 kts | 87° |
| 2026-04-26 15:27 | 6.72079 | 3.50626 | 34894 ft | 426 kts | 87° |
| 2026-04-26 15:28 | 6.72510 | 3.56577 | 34890 ft | 427 kts | 87° |
| 2026-04-26 15:28 | 6.72942 | 3.62526 | 34886 ft | 426 kts | 87° |
| 2026-04-26 15:29 | 6.73372 | 3.68438 | 34887 ft | 425 kts | 87° |
| 2026-04-26 15:30 | 6.74233 | 3.80318 | 34886 ft | 426 kts | 87° |
| 2026-04-26 15:30 | 6.74662 | 3.86249 | 34887 ft | 426 kts | 87° |
| 2026-04-26 15:31 | 6.75303 | 3.95132 | 34886 ft | 426 kts | 87° |
| 2026-04-26 15:32 | 6.75874 | 4.03066 | 34888 ft | 425 kts | 87° |
| 2026-04-26 15:32 | 6.76371 | 4.09976 | 34887 ft | 425 kts | 87° |
| 2026-04-26 15:33 | 6.76796 | 4.15902 | 34889 ft | 426 kts | 87° |
| 2026-04-26 15:33 | 6.77219 | 4.21820 | 34891 ft | 426 kts | 87° |
| 2026-04-26 15:34 | 6.77643 | 4.27761 | 34891 ft | 426 kts | 87° |
| 2026-04-26 15:34 | 6.78064 | 4.33670 | 34894 ft | 426 kts | 87° |
| 2026-04-26 15:35 | 6.78488 | 4.39625 | 34898 ft | 426 kts | 87° |
| 2026-04-26 15:35 | 6.78913 | 4.45555 | 34905 ft | 426 kts | 86° |
| 2026-04-26 15:36 | 6.79355 | 4.51488 | 34907 ft | 426 kts | 86° |
| 2026-04-26 15:36 | 6.79798 | 4.57427 | 34911 ft | 426 kts | 86° |
| 2026-04-26 15:37 | 6.80240 | 4.63400 | 34912 ft | 427 kts | 86° |
| 2026-04-26 15:37 | 6.80678 | 4.69320 | 34911 ft | 427 kts | 86° |
| 2026-04-26 15:38 | 6.81119 | 4.75294 | 34913 ft | 427 kts | 86° |
| 2026-04-26 15:38 | 6.81556 | 4.81230 | 34904 ft | 427 kts | 86° |
| 2026-04-26 15:39 | 6.81993 | 4.87179 | 34900 ft | 427 kts | 86° |
| 2026-04-26 15:39 | 6.82357 | 4.92122 | 34900 ft | 427 kts | 86° |
| 2026-04-26 15:40 | 6.82841 | 4.99083 | 34896 ft | 427 kts | 87° |
| 2026-04-26 15:40 | 6.83228 | 5.05064 | 34899 ft | 428 kts | 87° |
| 2026-04-26 15:41 | 6.83614 | 5.11012 | 34900 ft | 428 kts | 87° |
| 2026-04-26 15:41 | 6.84002 | 5.16971 | 34899 ft | 428 kts | 87° |
| 2026-04-26 15:42 | 6.84390 | 5.22951 | 34896 ft | 429 kts | 87° |
| 2026-04-26 15:42 | 6.84780 | 5.28958 | 34896 ft | 429 kts | 87° |
| 2026-04-26 15:43 | 6.85167 | 5.34931 | 34894 ft | 429 kts | 87° |
| 2026-04-26 15:44 | 6.85746 | 5.43923 | 34894 ft | 430 kts | 87° |
| 2026-04-26 15:44 | 6.86323 | 5.52860 | 34894 ft | 430 kts | 87° |
| 2026-04-26 15:45 | 6.86902 | 5.61886 | 34891 ft | 430 kts | 87° |
| 2026-04-26 15:46 | 6.87476 | 5.70857 | 34892 ft | 431 kts | 87° |
| 2026-04-26 15:46 | 6.87797 | 5.75859 | 34890 ft | 431 kts | 87° |
| 2026-04-26 15:47 | 6.88433 | 5.85865 | 34895 ft | 432 kts | 87° |
| 2026-04-26 15:48 | 6.88818 | 5.91915 | 34899 ft | 432 kts | 87° |
| 2026-04-26 15:48 | 6.89209 | 5.97940 | 34902 ft | 432 kts | 87° |
| 2026-04-26 15:49 | 6.89606 | 6.03959 | 34902 ft | 433 kts | 87° |
| 2026-04-26 15:49 | 6.90003 | 6.10011 | 34902 ft | 434 kts | 87° |
| 2026-04-26 15:50 | 6.90398 | 6.16055 | 34903 ft | 434 kts | 87° |
| 2026-04-26 15:50 | 6.90790 | 6.22079 | 34905 ft | 434 kts | 87° |
| 2026-04-26 15:51 | 6.91183 | 6.28135 | 34903 ft | 434 kts | 87° |
| 2026-04-26 15:51 | 6.91577 | 6.34197 | 34906 ft | 434 kts | 87° |
| 2026-04-26 15:52 | 6.91969 | 6.40269 | 34905 ft | 434 kts | 87° |
| 2026-04-26 15:52 | 6.92363 | 6.46343 | 34903 ft | 434 kts | 87° |
| 2026-04-26 15:53 | 6.92752 | 6.52394 | 34896 ft | 435 kts | 87° |
| 2026-04-26 15:53 | 6.93140 | 6.58479 | 34895 ft | 436 kts | 87° |
| 2026-04-26 15:54 | 6.93529 | 6.64555 | 34894 ft | 436 kts | 87° |
| 2026-04-26 15:54 | 6.93916 | 6.70631 | 34892 ft | 435 kts | 87° |
| 2026-04-26 15:55 | 6.94301 | 6.76695 | 34891 ft | 435 kts | 88° |
| 2026-04-26 15:55 | 6.94688 | 6.82788 | 34889 ft | 436 kts | 87° |
| 2026-04-26 15:56 | 6.95073 | 6.88865 | 34889 ft | 436 kts | 88° |
| 2026-04-26 15:56 | 6.95458 | 6.94954 | 34884 ft | 437 kts | 87° |
| 2026-04-26 15:57 | 6.95846 | 7.01065 | 34874 ft | 437 kts | 87° |
| 2026-04-26 15:57 | 6.96230 | 7.07178 | 34876 ft | 437 kts | 88° |
| 2026-04-26 15:58 | 6.96611 | 7.13246 | 34887 ft | 437 kts | 88° |
| 2026-04-26 15:58 | 6.96990 | 7.19384 | 34893 ft | 437 kts | 88° |
| 2026-04-26 15:59 | 6.97364 | 7.25476 | 34895 ft | 436 kts | 87° |
| 2026-04-26 15:59 | 6.97739 | 7.31548 | 34898 ft | 437 kts | 87° |
| 2026-04-26 16:00 | 6.98112 | 7.37639 | 34904 ft | 438 kts | 87° |
| 2026-04-26 16:00 | 6.98490 | 7.43783 | 34911 ft | 438 kts | 87° |
| 2026-04-26 16:01 | 6.98864 | 7.49914 | 34916 ft | 438 kts | 87° |
| 2026-04-26 16:01 | 6.99237 | 7.56035 | 34917 ft | 439 kts | 87° |
| 2026-04-26 16:02 | 6.99611 | 7.62141 | 34911 ft | 438 kts | 87° |
| 2026-04-26 16:02 | 6.99995 | 7.68289 | 34903 ft | 438 kts | 87° |
| 2026-04-26 16:03 | 7.00373 | 7.74408 | 34896 ft | 438 kts | 87° |
| 2026-04-26 16:03 | 7.00744 | 7.80501 | 34892 ft | 438 kts | 87° |
| 2026-04-26 16:04 | 7.01112 | 7.86632 | 34891 ft | 439 kts | 87° |
| 2026-04-26 16:04 | 7.01478 | 7.92767 | 34891 ft | 439 kts | 87° |
| 2026-04-26 16:05 | 7.01844 | 7.98895 | 34890 ft | 439 kts | 87° |
| 2026-04-26 16:05 | 7.02211 | 8.05017 | 34892 ft | 439 kts | 87° |
| 2026-04-26 16:06 | 7.02576 | 8.11135 | 34892 ft | 438 kts | 87° |
| 2026-04-26 16:06 | 7.02939 | 8.17234 | 34893 ft | 438 kts | 87° |
| 2026-04-26 16:07 | 7.03303 | 8.23360 | 34895 ft | 438 kts | 87° |
| 2026-04-26 16:07 | 7.03664 | 8.29485 | 34897 ft | 438 kts | 87° |
| 2026-04-26 16:08 | 7.04024 | 8.35592 | 34902 ft | 438 kts | 87° |
| 2026-04-26 16:08 | 7.04382 | 8.41662 | 34905 ft | 438 kts | 87° |
| 2026-04-26 16:09 | 7.04741 | 8.47784 | 34903 ft | 438 kts | 87° |
| 2026-04-26 16:09 | 7.05099 | 8.53882 | 34903 ft | 437 kts | 87° |
| 2026-04-26 16:10 | 7.05457 | 8.59989 | 34895 ft | 437 kts | 87° |
| 2026-04-26 16:10 | 7.05811 | 8.66057 | 34890 ft | 437 kts | 87° |
| 2026-04-26 16:11 | 7.06167 | 8.72144 | 34888 ft | 436 kts | 88° |
| 2026-04-26 16:11 | 7.06518 | 8.78220 | 34887 ft | 436 kts | 87° |
| 2026-04-26 16:12 | 7.06871 | 8.84301 | 34885 ft | 436 kts | 87° |
| 2026-04-26 16:12 | 7.07400 | 8.93431 | 34880 ft | 436 kts | 87° |
| 2026-04-26 16:13 | 7.07749 | 8.99499 | 34882 ft | 436 kts | 88° |
| 2026-04-26 16:13 | 7.08098 | 9.05571 | 34884 ft | 435 kts | 88° |
| 2026-04-26 16:14 | 7.08447 | 9.11648 | 34883 ft | 434 kts | 88° |
| 2026-04-26 16:15 | 7.08945 | 9.20738 | 34882 ft | 433 kts | 89° |
| 2026-04-26 16:15 | 7.09120 | 9.26781 | 34879 ft | 433 kts | 89° |
| 2026-04-26 16:16 | 7.09369 | 9.35846 | 34884 ft | 432 kts | 89° |
| 2026-04-26 16:16 | 7.09541 | 9.41874 | 34886 ft | 431 kts | 89° |
| 2026-04-26 16:17 | 7.09717 | 9.47854 | 34887 ft | 431 kts | 89° |
| 2026-04-26 16:17 | 7.09892 | 9.53892 | 34892 ft | 430 kts | 89° |
| 2026-04-26 16:18 | 7.10151 | 9.62876 | 34915 ft | 429 kts | 88° |
| 2026-04-26 16:19 | 7.10409 | 9.71858 | 34942 ft | 429 kts | 88° |
| 2026-04-26 16:20 | 7.10666 | 9.80830 | 34956 ft | 430 kts | 88° |
| 2026-04-26 16:20 | 7.10922 | 9.89830 | 34946 ft | 430 kts | 88° |
| 2026-04-26 16:21 | 7.11091 | 9.95825 | 34937 ft | 429 kts | 88° |
| 2026-04-26 16:21 | 7.11260 | 10.01825 | 34935 ft | 429 kts | 88° |
| 2026-04-26 16:22 | 7.11429 | 10.07807 | 34944 ft | 430 kts | 88° |
| 2026-04-26 16:22 | 7.11598 | 10.13826 | 34953 ft | 431 kts | 88° |
| 2026-04-26 16:23 | 7.11765 | 10.19867 | 34943 ft | 432 kts | 89° |
| 2026-04-26 16:23 | 7.11930 | 10.25909 | 34937 ft | 433 kts | 89° |
| 2026-04-26 16:24 | 7.12089 | 10.31952 | 34940 ft | 433 kts | 89° |
| 2026-04-26 16:24 | 7.12248 | 10.37995 | 34955 ft | 433 kts | 89° |
| 2026-04-26 16:25 | 7.12406 | 10.44048 | 34953 ft | 433 kts | 89° |
| 2026-04-26 16:25 | 7.12563 | 10.50079 | 34961 ft | 432 kts | 89° |
| 2026-04-26 16:26 | 7.12693 | 10.55087 | 34959 ft | 432 kts | 89° |
| 2026-04-26 16:26 | 7.12873 | 10.62117 | 34978 ft | 431 kts | 88° |
| 2026-04-26 16:27 | 7.13029 | 10.68123 | 34982 ft | 432 kts | 88° |
| 2026-04-26 16:27 | 7.13184 | 10.74161 | 34986 ft | 432 kts | 88° |
| 2026-04-26 16:28 | 7.13339 | 10.80203 | 35003 ft | 432 kts | 88° |
| 2026-04-26 16:28 | 7.13494 | 10.86261 | 35044 ft | 431 kts | 88° |
| 2026-04-26 16:29 | 7.13646 | 10.92286 | 35081 ft | 431 kts | 88° |
| 2026-04-26 16:29 | 7.13795 | 10.98280 | 35114 ft | 431 kts | 88° |
| 2026-04-26 16:30 | 7.13946 | 11.04327 | 35126 ft | 431 kts | 88° |
| 2026-04-26 16:30 | 7.14095 | 11.10349 | 35120 ft | 431 kts | 88° |
| 2026-04-26 16:31 | 7.14245 | 11.16363 | 35113 ft | 432 kts | 88° |
| 2026-04-26 16:31 | 7.14395 | 11.22415 | 35104 ft | 431 kts | 88° |
| 2026-04-26 16:32 | 7.14518 | 11.27450 | 35092 ft | 431 kts | 88° |
| 2026-04-26 16:32 | 7.14688 | 11.34462 | 35092 ft | 430 kts | 88° |
| 2026-04-26 16:33 | 7.14832 | 11.40453 | 35094 ft | 431 kts | 88° |
| 2026-04-26 16:33 | 7.14975 | 11.46474 | 35102 ft | 430 kts | 88° |
| 2026-04-26 16:34 | 7.15120 | 11.52482 | 35104 ft | 430 kts | 88° |
| 2026-04-26 16:34 | 7.15264 | 11.58491 | 35109 ft | 429 kts | 88° |
| 2026-04-26 16:35 | 7.15406 | 11.64464 | 35127 ft | 429 kts | 88° |
| 2026-04-26 16:35 | 7.15548 | 11.70478 | 35137 ft | 429 kts | 89° |
| 2026-04-26 16:36 | 7.15688 | 11.76473 | 35149 ft | 429 kts | 89° |
| 2026-04-26 16:36 | 7.15827 | 11.82462 | 35157 ft | 428 kts | 89° |
| 2026-04-26 16:37 | 7.16043 | 11.88399 | 35164 ft | 427 kts | 88° |
| 2026-04-26 16:37 | 7.16296 | 11.94371 | 35179 ft | 427 kts | 88° |
| 2026-04-26 16:38 | 7.16542 | 12.00337 | 35177 ft | 426 kts | 88° |
| 2026-04-26 16:38 | 7.16781 | 12.06299 | 35180 ft | 427 kts | 88° |
| 2026-04-26 16:39 | 7.17019 | 12.12250 | 35194 ft | 427 kts | 88° |
| 2026-04-26 16:39 | 7.17257 | 12.18226 | 35199 ft | 427 kts | 88° |
| 2026-04-26 16:40 | 7.17493 | 12.24161 | 35197 ft | 426 kts | 88° |
| 2026-04-26 16:40 | 7.17729 | 12.30116 | 35187 ft | 426 kts | 88° |
| 2026-04-26 16:41 | 7.17963 | 12.36053 | 35169 ft | 425 kts | 88° |
| 2026-04-26 16:41 | 7.18196 | 12.41992 | 35148 ft | 426 kts | 88° |
| 2026-04-26 16:42 | 7.18428 | 12.47935 | 35129 ft | 426 kts | 88° |
| 2026-04-26 16:42 | 7.18661 | 12.53893 | 35122 ft | 426 kts | 88° |
| 2026-04-26 16:43 | 7.18893 | 12.59847 | 35116 ft | 425 kts | 88° |
| 2026-04-26 16:43 | 7.19122 | 12.65770 | 35114 ft | 425 kts | 88° |
| 2026-04-26 16:44 | 7.19352 | 12.71714 | 35113 ft | 425 kts | 88° |
| 2026-04-26 16:44 | 7.19580 | 12.77635 | 35107 ft | 424 kts | 88° |
| 2026-04-26 16:45 | 7.19806 | 12.83556 | 35099 ft | 425 kts | 88° |
| 2026-04-26 16:45 | 7.20035 | 12.89527 | 35092 ft | 425 kts | 88° |
| 2026-04-26 16:46 | 7.20258 | 12.95422 | 35086 ft | 425 kts | 88° |
| 2026-04-26 16:46 | 7.20484 | 13.01380 | 35080 ft | 424 kts | 88° |
| 2026-04-26 16:47 | 7.20706 | 13.07267 | 35082 ft | 424 kts | 88° |
| 2026-04-26 16:47 | 7.20929 | 13.13217 | 35091 ft | 424 kts | 88° |
| 2026-04-26 16:48 | 7.21152 | 13.19125 | 35097 ft | 424 kts | 88° |
| 2026-04-26 16:48 | 7.21374 | 13.25059 | 35098 ft | 425 kts | 88° |
| 2026-04-26 16:49 | 7.21594 | 13.30978 | 35106 ft | 425 kts | 88° |
| 2026-04-26 16:49 | 7.21814 | 13.36908 | 35104 ft | 424 kts | 88° |
| 2026-04-26 16:50 | 7.22032 | 13.42823 | 35109 ft | 424 kts | 88° |
| 2026-04-26 16:50 | 7.22251 | 13.48765 | 35107 ft | 425 kts | 88° |
| 2026-04-26 16:51 | 7.22469 | 13.54685 | 35109 ft | 425 kts | 88° |
| 2026-04-26 16:51 | 7.22690 | 13.60633 | 35108 ft | 425 kts | 88° |
| 2026-04-26 16:52 | 7.22873 | 13.65594 | 35109 ft | 425 kts | 88° |
| 2026-04-26 16:52 | 7.23128 | 13.72520 | 35110 ft | 425 kts | 88° |
| 2026-04-26 16:53 | 7.23345 | 13.78465 | 35114 ft | 425 kts | 88° |
| 2026-04-26 16:53 | 7.23562 | 13.84425 | 35125 ft | 425 kts | 88° |
| 2026-04-26 16:54 | 7.23777 | 13.90332 | 35135 ft | 426 kts | 88° |
| 2026-04-26 16:54 | 7.23993 | 13.96292 | 35138 ft | 426 kts | 88° |
| 2026-04-26 16:55 | 7.24208 | 14.02234 | 35147 ft | 425 kts | 87° |
| 2026-04-26 16:55 | 7.24423 | 14.08169 | 35152 ft | 426 kts | 88° |
| 2026-04-26 16:56 | 7.24742 | 14.17101 | 35153 ft | 426 kts | 88° |
| 2026-04-26 16:57 | 7.24955 | 14.23084 | 35154 ft | 426 kts | 88° |
| 2026-04-26 16:57 | 7.25271 | 14.31997 | 35162 ft | 426 kts | 88° |
| 2026-04-26 16:58 | 7.25447 | 14.36968 | 35169 ft | 426 kts | 88° |
| 2026-04-26 16:59 | 7.25796 | 14.46884 | 35175 ft | 426 kts | 88° |
| 2026-04-26 17:00 | 7.26207 | 14.58782 | 35150 ft | 426 kts | 88° |
| 2026-04-26 17:00 | 7.26516 | 14.67757 | 35122 ft | 426 kts | 88° |
| 2026-04-26 17:01 | 7.26719 | 14.73705 | 35107 ft | 426 kts | 88° |
| 2026-04-26 17:01 | 7.26921 | 14.79637 | 35094 ft | 427 kts | 88° |
| 2026-04-26 17:02 | 7.27123 | 14.85598 | 35082 ft | 427 kts | 88° |
| 2026-04-26 17:02 | 7.27325 | 14.91572 | 35078 ft | 426 kts | 88° |
| 2026-04-26 17:03 | 7.27527 | 14.97537 | 35070 ft | 426 kts | 88° |
| 2026-04-26 17:03 | 7.27725 | 15.03458 | 35066 ft | 426 kts | 88° |
| 2026-04-26 17:04 | 7.27925 | 15.09437 | 35060 ft | 426 kts | 88° |
| 2026-04-26 17:04 | 7.28123 | 15.15403 | 35052 ft | 427 kts | 88° |
| 2026-04-26 17:05 | 7.28321 | 15.21372 | 35045 ft | 427 kts | 88° |
| 2026-04-26 17:05 | 7.28518 | 15.27337 | 35037 ft | 427 kts | 88° |
| 2026-04-26 17:06 | 7.28714 | 15.33308 | 35039 ft | 427 kts | 88° |
| 2026-04-26 17:06 | 7.28909 | 15.39288 | 35042 ft | 427 kts | 88° |
| 2026-04-26 17:07 | 7.29104 | 15.45266 | 35042 ft | 427 kts | 88° |
| 2026-04-26 17:07 | 7.29285 | 15.51242 | 35038 ft | 428 kts | 89° |
| 2026-04-26 17:08 | 7.29326 | 15.57228 | 35041 ft | 428 kts | 90° |
| 2026-04-26 17:08 | 7.29352 | 15.63199 | 35038 ft | 428 kts | 90° |
| 2026-04-26 17:09 | 7.29379 | 15.68183 | 35038 ft | 428 kts | 90° |
| 2026-04-26 17:09 | 7.29421 | 15.75197 | 35038 ft | 428 kts | 90° |
| 2026-04-26 17:10 | 7.29459 | 15.81187 | 35035 ft | 428 kts | 90° |
| 2026-04-26 17:10 | 7.29496 | 15.87191 | 35024 ft | 429 kts | 90° |
| 2026-04-26 17:11 | 7.29532 | 15.93162 | 35025 ft | 429 kts | 90° |
| 2026-04-26 17:11 | 7.29566 | 15.99182 | 35018 ft | 429 kts | 90° |
| 2026-04-26 17:12 | 7.29617 | 16.08194 | 35021 ft | 429 kts | 90° |
| 2026-04-26 17:13 | 7.29667 | 16.17178 | 35016 ft | 429 kts | 90° |
| 2026-04-26 17:14 | 7.29715 | 16.26191 | 34988 ft | 428 kts | 90° |
| 2026-04-26 17:14 | 7.29761 | 16.35169 | 34991 ft | 428 kts | 90° |
| 2026-04-26 17:15 | 7.29627 | 16.44181 | 34989 ft | 428 kts | 91° |
| 2026-04-26 17:16 | 7.29505 | 16.50141 | 34975 ft | 428 kts | 91° |
| 2026-04-26 17:16 | 7.29390 | 16.56133 | 34976 ft | 427 kts | 91° |
| 2026-04-26 17:17 | 7.29276 | 16.62090 | 34963 ft | 427 kts | 91° |
| 2026-04-26 17:17 | 7.29164 | 16.68106 | 34957 ft | 427 kts | 91° |
| 2026-04-26 17:18 | 7.29051 | 16.74075 | 34954 ft | 427 kts | 91° |
| 2026-04-26 17:18 | 7.28937 | 16.80035 | 34944 ft | 427 kts | 91° |
| 2026-04-26 17:19 | 7.28765 | 16.89016 | 34947 ft | 426 kts | 91° |
| 2026-04-26 17:19 | 7.28649 | 16.94965 | 34942 ft | 426 kts | 91° |
| 2026-04-26 17:20 | 7.28551 | 16.99929 | 34937 ft | 426 kts | 91° |
| 2026-04-26 17:20 | 7.28414 | 17.06907 | 34934 ft | 427 kts | 91° |
| 2026-04-26 17:21 | 7.28296 | 17.12892 | 34933 ft | 427 kts | 91° |
| 2026-04-26 17:21 | 7.28178 | 17.18853 | 34933 ft | 427 kts | 91° |
| 2026-04-26 17:22 | 7.28059 | 17.24831 | 34931 ft | 427 kts | 91° |
| 2026-04-26 17:22 | 7.27967 | 17.30797 | 34936 ft | 427 kts | 91° |
| 2026-04-26 17:23 | 7.27877 | 17.36808 | 34941 ft | 427 kts | 91° |
| 2026-04-26 17:23 | 7.27786 | 17.42760 | 34942 ft | 428 kts | 91° |
| 2026-04-26 17:24 | 7.27692 | 17.48764 | 34943 ft | 428 kts | 91° |
| 2026-04-26 17:24 | 7.27597 | 17.54745 | 34944 ft | 428 kts | 91° |
| 2026-04-26 17:25 | 7.27502 | 17.60736 | 34943 ft | 428 kts | 91° |
| 2026-04-26 17:25 | 7.27405 | 17.66744 | 34945 ft | 428 kts | 91° |
| 2026-04-26 17:26 | 7.27308 | 17.72737 | 34946 ft | 428 kts | 91° |
| 2026-04-26 17:26 | 7.27209 | 17.78749 | 34945 ft | 429 kts | 91° |
| 2026-04-26 17:27 | 7.27111 | 17.84725 | 34942 ft | 429 kts | 91° |
| 2026-04-26 17:27 | 7.27012 | 17.90757 | 34940 ft | 429 kts | 91° |
| 2026-04-26 17:28 | 7.26912 | 17.96734 | 34941 ft | 429 kts | 91° |
| 2026-04-26 17:28 | 7.26809 | 18.02757 | 34935 ft | 430 kts | 91° |
| 2026-04-26 17:29 | 7.26724 | 18.07754 | 34935 ft | 430 kts | 91° |
| 2026-04-26 17:29 | 7.26603 | 18.14792 | 34931 ft | 430 kts | 91° |
| 2026-04-26 17:30 | 7.26500 | 18.20822 | 34929 ft | 429 kts | 91° |
| 2026-04-26 17:30 | 7.26396 | 18.26824 | 34928 ft | 430 kts | 91° |
| 2026-04-26 17:31 | 7.26290 | 18.32847 | 34930 ft | 429 kts | 91° |
| 2026-04-26 17:31 | 7.26184 | 18.38853 | 34933 ft | 429 kts | 91° |
| 2026-04-26 17:32 | 7.26077 | 18.44843 | 34934 ft | 429 kts | 91° |
| 2026-04-26 17:32 | 7.25969 | 18.50840 | 34937 ft | 429 kts | 91° |
| 2026-04-26 17:33 | 7.25861 | 18.56840 | 34938 ft | 429 kts | 91° |
| 2026-04-26 17:34 | 7.25697 | 18.65871 | 34942 ft | 429 kts | 91° |
| 2026-04-26 17:34 | 7.25587 | 18.71847 | 34940 ft | 429 kts | 91° |
| 2026-04-26 17:35 | 7.25475 | 18.77862 | 34942 ft | 428 kts | 91° |
| 2026-04-26 17:35 | 7.25364 | 18.83831 | 34942 ft | 428 kts | 92° |
| 2026-04-26 17:36 | 7.25251 | 18.89844 | 34936 ft | 429 kts | 91° |
| 2026-04-26 17:36 | 7.25137 | 18.95876 | 34944 ft | 429 kts | 91° |
| 2026-04-26 17:37 | 7.25023 | 19.01850 | 34956 ft | 429 kts | 92° |
| 2026-04-26 17:37 | 7.24907 | 19.07850 | 34945 ft | 429 kts | 92° |
| 2026-04-26 17:38 | 7.24734 | 19.16867 | 34941 ft | 428 kts | 92° |
| 2026-04-26 17:38 | 7.24616 | 19.22854 | 34942 ft | 427 kts | 91° |
| 2026-04-26 17:39 | 7.24499 | 19.28842 | 34939 ft | 427 kts | 91° |
| 2026-04-26 17:39 | 7.24380 | 19.34830 | 34941 ft | 427 kts | 91° |
| 2026-04-26 17:40 | 7.24281 | 19.39800 | 34942 ft | 427 kts | 91° |
| 2026-04-26 17:40 | 7.24142 | 19.46754 | 34941 ft | 427 kts | 91° |
| 2026-04-26 17:41 | 7.24022 | 19.52724 | 34941 ft | 426 kts | 91° |
| 2026-04-26 17:41 | 7.23900 | 19.58707 | 34943 ft | 426 kts | 91° |
| 2026-04-26 17:42 | 7.23779 | 19.64637 | 34947 ft | 425 kts | 91° |
| 2026-04-26 17:42 | 7.23656 | 19.70629 | 34948 ft | 426 kts | 91° |
| 2026-04-26 17:43 | 7.23533 | 19.76589 | 34950 ft | 426 kts | 91° |
| 2026-04-26 17:43 | 7.23408 | 19.82549 | 34951 ft | 426 kts | 91° |
| 2026-04-26 17:44 | 7.23284 | 19.88469 | 34950 ft | 425 kts | 91° |
| 2026-04-26 17:44 | 7.23158 | 19.94448 | 34940 ft | 425 kts | 91° |
| 2026-04-26 17:45 | 7.23033 | 20.00382 | 34935 ft | 425 kts | 91° |
| 2026-04-26 17:45 | 7.22907 | 20.06341 | 34936 ft | 425 kts | 91° |
| 2026-04-26 17:46 | 7.22779 | 20.12282 | 34935 ft | 425 kts | 91° |
| 2026-04-26 17:46 | 7.22649 | 20.18255 | 34938 ft | 425 kts | 91° |
| 2026-04-26 17:47 | 7.22542 | 20.23212 | 34939 ft | 425 kts | 91° |
| 2026-04-26 17:47 | 7.22391 | 20.30131 | 34941 ft | 425 kts | 91° |
| 2026-04-26 17:48 | 7.22261 | 20.36086 | 34944 ft | 425 kts | 91° |
| 2026-04-26 17:48 | 7.22129 | 20.42036 | 34947 ft | 424 kts | 91° |
| 2026-04-26 17:49 | 7.21997 | 20.47978 | 34951 ft | 424 kts | 91° |
| 2026-04-26 17:49 | 7.21864 | 20.53891 | 34963 ft | 425 kts | 91° |
| 2026-04-26 17:50 | 7.21730 | 20.59848 | 34969 ft | 425 kts | 91° |
| 2026-04-26 17:50 | 7.21596 | 20.65799 | 34969 ft | 425 kts | 91° |
| 2026-04-26 17:51 | 7.21460 | 20.71744 | 34969 ft | 424 kts | 91° |
| 2026-04-26 17:51 | 7.21324 | 20.77670 | 34971 ft | 424 kts | 91° |
| 2026-04-26 17:52 | 7.21188 | 20.83615 | 34974 ft | 424 kts | 91° |
| 2026-04-26 17:52 | 7.21072 | 20.89566 | 34976 ft | 424 kts | 91° |
| 2026-04-26 17:53 | 7.20966 | 20.95505 | 34979 ft | 424 kts | 91° |
| 2026-04-26 17:54 | 7.20801 | 21.04419 | 34983 ft | 425 kts | 91° |
| 2026-04-26 17:54 | 7.20690 | 21.10368 | 34984 ft | 424 kts | 91° |
| 2026-04-26 17:55 | 7.20579 | 21.16288 | 34986 ft | 423 kts | 91° |
| 2026-04-26 17:55 | 7.20469 | 21.22196 | 34988 ft | 422 kts | 91° |
| 2026-04-26 17:56 | 7.20357 | 21.28117 | 34987 ft | 422 kts | 91° |
| 2026-04-26 17:57 | 7.20127 | 21.39954 | 34989 ft | 423 kts | 91° |
| 2026-04-26 17:57 | 7.20011 | 21.45865 | 34989 ft | 422 kts | 91° |
| 2026-04-26 17:58 | 7.19779 | 21.57670 | 34990 ft | 422 kts | 91° |
| 2026-04-26 17:59 | 7.19604 | 21.66502 | 34989 ft | 421 kts | 91° |
| 2026-04-26 17:59 | 7.19393 | 21.72413 | 34987 ft | 421 kts | 94° |
| 2026-04-26 18:00 | 7.18617 | 21.78227 | 34985 ft | 421 kts | 100° |
| 2026-04-26 18:00 | 7.17537 | 21.84015 | 34986 ft | 421 kts | 100° |
| 2026-04-26 18:01 | 7.16443 | 21.89837 | 34995 ft | 421 kts | 100° |
| 2026-04-26 18:01 | 7.15362 | 21.95601 | 35005 ft | 420 kts | 100° |
| 2026-04-26 18:02 | 7.14461 | 22.00423 | 35010 ft | 420 kts | 100° |
| 2026-04-26 18:02 | 7.13203 | 22.07145 | 35008 ft | 420 kts | 100° |
| 2026-04-26 18:03 | 7.12120 | 22.12931 | 35007 ft | 419 kts | 100° |
| 2026-04-26 18:03 | 7.11043 | 22.18678 | 35008 ft | 419 kts | 100° |
| 2026-04-26 18:04 | 7.09964 | 22.24431 | 35007 ft | 418 kts | 100° |
| 2026-04-26 18:05 | 7.08344 | 22.33066 | 35010 ft | 419 kts | 100° |
| 2026-04-26 18:05 | 7.07263 | 22.38818 | 35009 ft | 419 kts | 100° |
| 2026-04-26 18:06 | 7.06182 | 22.44569 | 35010 ft | 418 kts | 100° |
| 2026-04-26 18:06 | 7.05102 | 22.50313 | 35010 ft | 418 kts | 100° |
| 2026-04-26 18:07 | 7.04014 | 22.56093 | 35007 ft | 418 kts | 100° |
| 2026-04-26 18:07 | 7.02936 | 22.61817 | 35003 ft | 418 kts | 100° |
| 2026-04-26 18:08 | 7.01855 | 22.67551 | 34998 ft | 417 kts | 101° |
| 2026-04-26 18:08 | 7.00772 | 22.73297 | 35001 ft | 417 kts | 101° |
| 2026-04-26 18:09 | 6.99690 | 22.79031 | 35009 ft | 417 kts | 101° |
| 2026-04-26 18:09 | 6.98607 | 22.84756 | 35014 ft | 417 kts | 101° |
| 2026-04-26 18:10 | 6.97522 | 22.90505 | 35011 ft | 417 kts | 101° |
| 2026-04-26 18:10 | 6.96445 | 22.96201 | 35016 ft | 417 kts | 101° |
| 2026-04-26 18:11 | 6.95359 | 23.01938 | 35017 ft | 417 kts | 101° |
| 2026-04-26 18:11 | 6.94276 | 23.07660 | 35020 ft | 416 kts | 101° |
| 2026-04-26 18:12 | 6.93192 | 23.13375 | 35023 ft | 415 kts | 101° |
| 2026-04-26 18:12 | 6.92107 | 23.19091 | 35027 ft | 416 kts | 101° |
| 2026-04-26 18:13 | 6.91023 | 23.24807 | 35034 ft | 417 kts | 101° |
| 2026-04-26 18:13 | 6.89928 | 23.30570 | 35035 ft | 416 kts | 100° |
| 2026-04-26 18:14 | 6.88849 | 23.36256 | 35031 ft | 417 kts | 100° |
| 2026-04-26 18:14 | 6.87758 | 23.41995 | 35024 ft | 416 kts | 101° |
| 2026-04-26 18:15 | 6.86673 | 23.47693 | 35021 ft | 416 kts | 101° |
| 2026-04-26 18:15 | 6.85584 | 23.53417 | 35019 ft | 416 kts | 101° |
| 2026-04-26 18:16 | 6.84492 | 23.59148 | 35017 ft | 416 kts | 101° |
| 2026-04-26 18:16 | 6.82855 | 23.67725 | 35017 ft | 416 kts | 100° |
| 2026-04-26 18:17 | 6.81768 | 23.73420 | 35013 ft | 416 kts | 100° |
| 2026-04-26 18:17 | 6.81588 | 23.74363 | 35014 ft | 416 kts | 100° |